Time;durP1;ratioP1;P1;durP2;ratioP2;P2;SDS_P1;SDS_P2;PMS_P1;PMS_P2;Temp;Humidity;BMP_temperature;BMP_pressure;BME280_temperature;BME280_humidity;BME280_pressure;Samples;Min_cycle;Max_cycle;Signal;HPM_P1;HPM_P2
2023/11/16 00:02:13;;;;;;;;;;;;;;;17.03;51.11;99619.38;10328930;28;826;-70
2023/11/16 00:07:10;;;;;;;;;;;;;;;17.00;51.24;99616.84;10328133;28;813;-70
2023/11/16 00:12:06;;;;;;;;;;;;;;;16.96;51.08;99617.94;10327835;28;1965;-70
2023/11/16 00:17:03;;;;;;;;;;;;;;;16.98;50.98;99621.34;10327648;28;799;-70
2023/11/16 00:21:59;;;;;;;;;;;;;;;16.94;51.22;99604.81;10327474;28;841;-70
2023/11/16 00:26:55;;;;;;;;;;;;;;;16.94;51.08;99614.50;10327977;28;893;-70
2023/11/16 00:31:51;;;;;;;;;;;;;;;16.91;51.11;99615.47;10327143;28;1906;-71
2023/11/16 00:36:47;;;;;;;;;;;;;;;16.92;51.10;99624.22;10326821;28;973;-71
2023/11/16 00:41:43;;;;;;;;;;;;;;;16.91;51.30;99633.06;10326065;28;832;-71
2023/11/16 00:46:43;;;;;;;;;;;;;;;16.88;51.49;99617.41;10326397;28;898;-70
2023/11/16 00:51:39;;;;;;;;;;;;;;;16.85;51.53;99613.13;10327128;28;1981;-70
2023/11/16 00:56:35;;;;;;;;;;;;;;;16.85;51.43;99610.47;10326246;28;884;-70
2023/11/16 01:01:32;;;;;;;;;;;;;;;16.81;51.51;99612.38;10326710;28;864;-70
2023/11/16 01:06:28;;;;;;;;;;;;;;;16.82;51.41;99608.81;10325489;28;1163;-70
2023/11/16 01:11:29;;;;;;;;;;;;;;;16.80;51.52;99609.81;10326389;28;2031;-70
2023/11/16 01:16:30;;;;;;;;;;;;;;;16.77;51.35;99605.53;10325877;28;932;-70
2023/11/16 01:21:26;;;;;;;;;;;;;;;16.77;51.59;99609.91;10326408;28;850;-70
2023/11/16 01:26:23;;;;;;;;;;;;;;;16.74;51.81;99613.53;10326110;28;860;-70
2023/11/16 01:31:19;;;;;;;;;;;;;;;16.70;51.77;99604.03;10326820;28;1926;-70
2023/11/16 01:36:16;;;;;;;;;;;;;;;16.68;51.65;99592.69;10325258;28;877;-70
2023/11/16 01:41:14;;;;;;;;;;;;;;;16.68;51.62;99597.97;10325241;28;901;-70
2023/11/16 01:46:11;;;;;;;;;;;;;;;16.65;51.57;99606.84;10324982;28;905;-70
2023/11/16 01:51:07;;;;;;;;;;;;;;;16.68;51.69;99615.53;10325561;28;1918;-70
2023/11/16 01:56:03;;;;;;;;;;;;;;;16.64;51.54;99613.03;10325634;28;845;-70
2023/11/16 02:00:59;;;;;;;;;;;;;;;16.64;51.64;99620.09;10324868;28;777;-70
2023/11/16 02:05:56;;;;;;;;;;;;;;;16.60;51.54;99611.44;10325339;28;766;-70
2023/11/16 02:10:52;;;;;;;;;;;;;;;16.61;51.61;99607.91;10324637;28;1955;-70
2023/11/16 02:15:48;;;;;;;;;;;;;;;16.59;51.71;99612.38;10325108;28;806;-71
2023/11/16 02:20:47;;;;;;;;;;;;;;;16.57;51.76;99593.16;10330792;28;882;-70
2023/11/16 02:25:43;;;;;;;;;;;;;;;16.57;51.82;99597.56;10332072;28;775;-70
2023/11/16 02:30:39;;;;;;;;;;;;;;;16.55;51.72;99599.38;10331901;28;1901;-70
2023/11/16 02:35:35;;;;;;;;;;;;;;;16.56;51.94;99598.50;10331682;28;837;-70
2023/11/16 02:40:31;;;;;;;;;;;;;;;16.55;51.72;99607.28;10331578;28;897;-70
2023/11/16 02:45:27;;;;;;;;;;;;;;;16.54;51.89;99606.44;10331211;28;889;-70
2023/11/16 02:50:23;;;;;;;;;;;;;;;16.51;51.89;99597.81;10331167;28;1922;-70
2023/11/16 02:55:25;;;;;;;;;;;;;;;16.50;51.94;99598.72;10331641;28;799;-70
2023/11/16 03:00:21;;;;;;;;;;;;;;;16.49;51.93;99595.22;10330735;28;905;-70
2023/11/16 03:05:21;;;;;;;;;;;;;;;16.47;51.72;99586.53;10330616;28;905;-70
2023/11/16 03:10:17;;;;;;;;;;;;;;;16.47;51.75;99599.69;10331543;28;1902;-70
2023/11/16 03:15:13;;;;;;;;;;;;;;;16.46;52.01;99591.88;10330150;28;881;-70
2023/11/16 03:20:09;;;;;;;;;;;;;;;16.46;52.01;99594.50;10330752;28;948;-71
2023/11/16 03:25:05;;;;;;;;;;;;;;;16.42;51.88;99591.13;10330579;28;842;-71
2023/11/16 03:30:02;;;;;;;;;;;;;;;16.44;51.98;99587.53;10329817;28;1901;-70
2023/11/16 03:34:58;;;;;;;;;;;;;;;16.43;52.05;99579.72;10330427;28;774;-71
2023/11/16 03:39:54;;;;;;;;;;;;;;;16.41;52.07;99582.38;10329707;28;876;-71
2023/11/16 03:44:50;;;;;;;;;;;;;;;16.39;51.90;99578.94;10329621;28;858;-71
2023/11/16 03:49:46;;;;;;;;;;;;;;;16.39;52.02;99583.38;10329021;28;1917;-70
2023/11/16 03:54:44;;;;;;;;;;;;;;;16.36;52.17;99594.00;10328840;28;861;-70
2023/11/16 03:59:40;;;;;;;;;;;;;;;16.35;52.07;99590.53;10328021;28;780;-70
2023/11/16 04:04:36;;;;;;;;;;;;;;;16.33;51.94;99583.63;10328919;28;856;-70
2023/11/16 04:09:32;;;;;;;;;;;;;;;16.34;52.15;99585.31;10328845;28;1902;-70
2023/11/16 04:14:28;;;;;;;;;;;;;;;16.33;52.02;99579.22;10328304;28;846;-70
2023/11/16 04:19:27;;;;;;;;;;;;;;;16.31;51.98;99581.03;10328269;28;887;-70
2023/11/16 04:24:23;;;;;;;;;;;;;;;16.30;52.05;99581.97;10328077;28;837;-70
2023/11/16 04:29:18;;;;;;;;;;;;;;;16.28;51.98;99581.16;10327631;28;1964;-70
2023/11/16 04:34:14;;;;;;;;;;;;;;;16.28;51.99;99570.63;10327093;28;877;-70
2023/11/16 04:39:11;;;;;;;;;;;;;;;16.28;52.12;99583.78;10326082;28;876;-70
2023/11/16 04:44:08;;;;;;;;;;;;;;;16.28;52.00;99578.53;10326722;28;779;-70
2023/11/16 04:49:04;;;;;;;;;;;;;;;16.27;52.05;99573.31;10327040;28;1962;-70
2023/11/16 04:54:00;;;;;;;;;;;;;;;16.36;51.66;99575.59;10326925;28;874;-70
2023/11/16 04:58:56;;;;;;;;;;;;;;;16.44;51.49;99579.63;10326349;28;879;-70
2023/11/16 05:03:52;;;;;;;;;;;;;;;16.52;51.04;99578.47;10326677;28;790;-70
2023/11/16 05:08:48;;;;;;;;;;;;;;;16.60;50.77;99586.91;10326227;28;1897;-70
2023/11/16 05:13:44;;;;;;;;;;;;;;;16.65;50.84;99591.06;10326427;28;948;-70
2023/11/16 05:18:41;;;;;;;;;;;;;;;16.77;50.67;99573.06;10325581;28;889;-70
2023/11/16 05:23:37;;;;;;;;;;;;;;;16.87;50.54;99577.03;10326200;28;835;-71
2023/11/16 05:28:33;;;;;;;;;;;;;;;16.95;50.54;99582.84;10325460;28;1914;-70
2023/11/16 05:33:29;;;;;;;;;;;;;;;16.98;50.45;99581.88;10326223;28;878;-70
2023/11/16 05:38:25;;;;;;;;;;;;;;;17.07;50.23;99574.41;10325268;28;985;-70
2023/11/16 05:43:21;;;;;;;;;;;;;;;17.11;50.22;99572.50;10324600;28;881;-71
2023/11/16 05:48:17;;;;;;;;;;;;;;;17.15;50.15;99584.63;10325133;28;845;-71
2023/11/16 05:53:13;;;;;;;;;;;;;;;17.19;50.28;99588.84;10329324;28;1898;-71
2023/11/16 05:58:09;;;;;;;;;;;;;;;17.21;50.15;99589.63;10333264;28;847;-71
2023/11/16 06:03:05;;;;;;;;;;;;;;;17.21;50.06;99587.00;10332327;28;1297;-71
2023/11/16 06:08:01;;;;;;;;;;;;;;;17.27;50.24;99570.06;10332542;28;913;-71
2023/11/16 06:12:59;;;;;;;;;;;;;;;17.28;50.04;99569.97;10332330;28;1901;-71
2023/11/16 06:17:55;;;;;;;;;;;;;;;17.31;50.20;99574.25;10332274;28;893;-71
2023/11/16 06:22:51;;;;;;;;;;;;;;;17.35;50.20;99562.69;10332602;28;857;-70
2023/11/16 06:27:46;;;;;;;;;;;;;;;17.35;50.30;99567.09;10331729;28;1887;-71
2023/11/16 06:32:42;;;;;;;;;;;;;;;17.33;50.29;99561.88;10331960;28;1911;-71
2023/11/16 06:37:38;;;;;;;;;;;;;;;17.39;50.15;99555.47;10331418;28;862;-71
2023/11/16 06:42:36;;;;;;;;;;;;;;;17.40;50.10;99549.31;10331823;28;873;-71
2023/11/16 06:47:32;;;;;;;;;;;;;;;17.39;50.35;99548.44;10330900;28;859;-71
2023/11/16 06:52:28;;;;;;;;;;;;;;;17.42;50.22;99556.22;10330726;28;1897;-71
2023/11/16 06:57:26;;;;;;;;;;;;;;;17.41;50.25;99556.28;10331314;28;849;-71
2023/11/16 07:02:22;;;;;;;;;;;;;;;17.40;50.45;99559.84;10330704;28;873;-71
2023/11/16 07:07:18;;;;;;;;;;;;;;;17.39;50.42;99560.75;10330577;28;799;-71
2023/11/16 07:12:20;;;;;;;;;;;;;;;17.34;50.67;99557.47;10330020;28;1894;-70
2023/11/16 07:17:17;;;;;;;;;;;;;;;17.30;50.62;99551.50;10330618;28;863;-71
2023/11/16 07:22:13;;;;;;;;;;;;;;;17.25;50.61;99549.06;10330621;28;838;-72
2023/11/16 07:27:09;;;;;;;;;;;;;;;17.20;50.60;99548.41;10329734;28;865;-71
2023/11/16 07:32:07;;;;;;;;;;;;;;;17.20;50.60;99543.13;10329423;28;1894;-69
2023/11/16 07:37:03;;;;;;;;;;;;;;;17.21;51.09;99541.34;10329126;28;937;-71
2023/11/16 07:41:59;;;;;;;;;;;;;;;17.21;51.18;99530.81;10329095;28;950;-71
2023/11/16 07:46:55;;;;;;;;;;;;;;;17.25;50.94;99532.41;10328893;28;925;-71
2023/11/16 07:51:51;;;;;;;;;;;;;;;17.27;50.72;99520.03;10328540;28;1943;-71
2023/11/16 07:56:52;;;;;;;;;;;;;;;17.26;50.81;99513.88;10328369;28;918;-75
2023/11/16 08:01:54;;;;;;;;;;;;;;;17.30;50.89;99515.47;10327586;28;1286;-70
2023/11/16 08:06:51;;;;;;;;;;;;;;;17.35;50.93;99509.13;10326091;28;1594;-71
2023/11/16 08:11:47;;;;;;;;;;;;;;;17.34;50.77;99499.50;10326248;28;1961;-71
2023/11/16 08:16:43;;;;;;;;;;;;;;;17.42;50.82;99489.47;10327198;28;1176;-71
2023/11/16 08:21:41;;;;;;;;;;;;;;;17.41;50.83;99474.59;10327427;28;838;-71
2023/11/16 08:26:37;;;;;;;;;;;;;;;17.44;50.70;99470.03;10326729;28;1347;-72
2023/11/16 08:31:33;;;;;;;;;;;;;;;17.43;50.68;99464.84;10327114;28;1922;-71
2023/11/16 08:36:29;;;;;;;;;;;;;;;17.29;51.18;99468.97;10326692;28;1005;-69
2023/11/16 08:41:26;;;;;;;;;;;;;;;17.19;51.36;99467.69;10327023;28;870;-70
2023/11/16 08:46:24;;;;;;;;;;;;;;;17.13;51.21;99481.09;10326864;28;870;-71
2023/11/16 08:51:22;;;;;;;;;;;;;;;17.27;50.59;99484.00;10325876;28;1894;-71
2023/11/16 08:56:19;;;;;;;;;;;;;;;17.38;49.90;99486.13;10326694;28;842;-71
2023/11/16 09:01:19;;;;;;;;;;;;;;;17.42;49.83;99484.19;10325597;28;846;-70
2023/11/16 09:06:18;;;;;;;;;;;;;;;17.42;49.97;99485.09;10326055;28;853;-71
2023/11/16 09:11:17;;;;;;;;;;;;;;;17.47;49.81;99480.44;10325085;28;1894;-70
2023/11/16 09:16:14;;;;;;;;;;;;;;;17.50;49.68;99485.59;10324923;28;1178;-71
2023/11/16 09:21:12;;;;;;;;;;;;;;;17.48;49.74;99489.22;10324955;28;850;-71
2023/11/16 09:26:11;;;;;;;;;;;;;;;17.49;49.78;99489.13;10325578;28;861;-71
2023/11/16 09:31:13;;;;;;;;;;;;;;;17.50;49.86;99482.94;10325188;28;1910;-70
2023/11/16 09:36:10;;;;;;;;;;;;;;;17.48;49.88;99466.34;10325198;28;963;-71
2023/11/16 09:41:06;;;;;;;;;;;;;;;17.51;49.94;99473.25;10324414;28;838;-71
2023/11/16 09:46:05;;;;;;;;;;;;;;;17.56;49.82;99463.34;10325527;28;968;-71
2023/11/16 09:51:01;;;;;;;;;;;;;;;17.54;50.23;99444.13;10324802;28;1902;-71
2023/11/16 09:56:03;;;;;;;;;;;;;;;17.53;50.04;99445.06;10325373;28;858;-71
2023/11/16 10:00:59;;;;;;;;;;;;;;;17.60;50.02;99438.53;10324065;28;972;-71
2023/11/16 10:05:55;;;;;;;;;;;;;;;17.57;50.09;99419.41;10324288;28;1097;-71
2023/11/16 10:10:52;;;;;;;;;;;;;;;17.58;50.19;99421.09;10324216;28;1894;-72
2023/11/16 10:15:49;;;;;;;;;;;;;;;17.61;50.23;99429.72;10324385;28;846;-71
2023/11/16 10:20:45;;;;;;;;;;;;;;;17.59;50.23;99422.81;10323808;28;857;-71
2023/11/16 10:25:41;;;;;;;;;;;;;;;17.58;50.46;99424.63;10324229;28;885;-70
2023/11/16 10:30:38;;;;;;;;;;;;;;;17.60;50.21;99404.28;10324251;28;1977;-71
2023/11/16 10:35:35;;;;;;;;;;;;;;;17.60;50.31;99396.38;10324177;28;891;-71
2023/11/16 10:40:33;;;;;;;;;;;;;;;17.58;50.48;99387.72;10327664;28;988;-71
2023/11/16 10:45:29;;;;;;;;;;;;;;;17.61;50.29;99373.53;10330752;28;984;-71
2023/11/16 10:50:29;;;;;;;;;;;;;;;17.61;50.41;99355.09;10330535;28;1960;-71
2023/11/16 10:55:29;;;;;;;;;;;;;;;17.58;50.31;99342.91;10331827;28;881;-71
2023/11/16 11:00:29;;;;;;;;;;;;;;;17.63;50.39;99337.41;10330157;28;1000;-70
2023/11/16 11:05:25;;;;;;;;;;;;;;;17.65;50.20;99320.59;10331253;28;939;-70
2023/11/16 11:10:21;;;;;;;;;;;;;;;17.61;50.43;99326.94;10329782;28;1952;-70
2023/11/16 11:15:17;;;;;;;;;;;;;;;17.63;50.34;99318.94;10330914;28;802;-71
2023/11/16 11:20:14;;;;;;;;;;;;;;;17.64;50.28;99316.25;10329524;28;907;-72
2023/11/16 11:25:12;;;;;;;;;;;;;;;17.62;50.29;99314.63;10329768;28;826;-72
2023/11/16 11:30:11;;;;;;;;;;;;;;;17.64;50.38;99318.88;10328976;28;1989;-71
2023/11/16 11:35:11;;;;;;;;;;;;;;;17.67;50.51;99316.09;10329348;28;784;-71
2023/11/16 11:40:14;;;;;;;;;;;;;;;17.65;50.55;99309.19;10329530;28;855;-71
2023/11/16 11:45:12;;;;;;;;;;;;;;;17.66;50.59;99305.66;10329482;28;873;-73
2023/11/16 11:50:08;;;;;;;;;;;;;;;17.70;50.62;99292.22;10328185;28;1960;-71
2023/11/16 11:55:06;;;;;;;;;;;;;;;17.73;50.57;99284.16;10328443;28;920;-70
2023/11/16 12:00:06;;;;;;;;;;;;;;;17.80;50.55;99284.72;10328196;28;867;-70
2023/11/16 12:05:02;;;;;;;;;;;;;;;17.90;50.46;99277.22;10327830;28;877;-75
2023/11/16 12:09:58;;;;;;;;;;;;;;;17.85;50.61;99269.53;10327587;28;1950;-70
2023/11/16 12:14:54;;;;;;;;;;;;;;;17.84;50.73;99246.75;10327513;28;759;-72
2023/11/16 12:19:51;;;;;;;;;;;;;;;17.80;51.07;99244.34;10327962;28;842;-70
2023/11/16 12:24:48;;;;;;;;;;;;;;;17.75;50.92;99242.75;10326590;28;767;-70
2023/11/16 12:29:44;;;;;;;;;;;;;;;17.73;50.88;99239.34;10326892;28;1985;-69
2023/11/16 12:34:41;;;;;;;;;;;;;;;17.74;50.93;99230.50;10325404;28;1900;-71
2023/11/16 12:39:37;;;;;;;;;;;;;;;17.72;50.82;99221.81;10327501;28;810;-71
2023/11/16 12:44:33;;;;;;;;;;;;;;;17.72;50.94;99213.91;10326534;28;868;-71
2023/11/16 12:49:28;;;;;;;;;;;;;;;17.78;50.75;99204.00;10326430;28;1898;-71
2023/11/16 12:54:24;;;;;;;;;;;;;;;17.75;50.97;99184.75;10326854;28;809;-71
2023/11/16 12:59:21;;;;;;;;;;;;;;;17.72;51.03;99163.84;10326395;28;857;-71
2023/11/16 13:04:18;;;;;;;;;;;;;;;17.75;50.74;99147.84;10324299;28;1761;-71
2023/11/16 13:09:14;;;;;;;;;;;;;;;17.75;50.88;99129.41;10326122;28;1977;-71
2023/11/16 13:14:12;;;;;;;;;;;;;;;17.71;50.99;99119.97;10325870;28;767;-71
2023/11/16 13:19:08;;;;;;;;;;;;;;;17.78;50.75;99127.53;10325541;28;798;-72
2023/11/16 13:24:04;;;;;;;;;;;;;;;17.75;50.69;99126.78;10325423;28;870;-71
2023/11/16 13:29:00;;;;;;;;;;;;;;;17.72;50.76;99119.03;10325175;28;1986;-70
2023/11/16 13:33:56;;;;;;;;;;;;;;;17.75;50.52;99116.22;10324530;28;866;-70
2023/11/16 13:38:55;;;;;;;;;;;;;;;17.72;50.85;99111.13;10325062;28;1116;-71
2023/11/16 13:43:51;;;;;;;;;;;;;;;17.68;50.90;99096.44;10325265;28;773;-71
2023/11/16 13:48:47;;;;;;;;;;;;;;;17.66;51.15;99098.28;10324928;28;949;-71
2023/11/16 13:53:43;;;;;;;;;;;;;;;17.66;50.81;99106.19;10324821;28;1906;-71
2023/11/16 13:58:40;;;;;;;;;;;;;;;17.66;51.08;99094.81;10324744;28;794;-71
2023/11/16 14:03:36;;;;;;;;;;;;;;;17.64;50.89;99094.03;10324446;28;949;-71
2023/11/16 14:08:35;;;;;;;;;;;;;;;17.63;51.23;99081.75;10324115;28;1068;-71
2023/11/16 14:13:31;;;;;;;;;;;;;;;17.62;50.96;99078.28;10327161;28;1894;-71
2023/11/16 14:18:28;;;;;;;;;;;;;;;17.63;51.10;99079.13;10332089;28;894;-71
2023/11/16 14:23:24;;;;;;;;;;;;;;;17.67;51.28;99070.97;10332296;28;857;-71
2023/11/16 14:28:20;;;;;;;;;;;;;;;17.67;51.28;99073.63;10331644;28;988;-71
2023/11/16 14:33:16;;;;;;;;;;;;;;;17.68;51.21;99075.34;10332733;28;1898;-70
2023/11/16 14:38:11;;;;;;;;;;;;;;;17.70;51.28;99076.09;10332084;28;893;-71
2023/11/16 14:43:07;;;;;;;;;;;;;;;17.72;51.45;99084.75;10331785;28;797;-71
2023/11/16 14:48:03;;;;;;;;;;;;;;;17.70;51.52;99072.59;10330698;28;900;-71
2023/11/16 14:52:59;;;;;;;;;;;;;;;17.74;51.25;99074.16;10330095;28;1951;-71
2023/11/16 14:57:55;;;;;;;;;;;;;;;17.72;51.30;99082.13;10331004;28;861;-71
2023/11/16 15:02:51;;;;;;;;;;;;;;;17.71;51.38;99082.19;10330361;28;921;-70
2023/11/16 15:07:47;;;;;;;;;;;;;;;17.74;51.16;99077.63;10330380;28;826;-71
2023/11/16 15:12:43;;;;;;;;;;;;;;;17.74;51.40;99076.78;10330416;28;1878;-71
2023/11/16 15:17:40;;;;;;;;;;;;;;;17.75;51.15;99081.13;10330049;28;961;-71
2023/11/16 15:22:36;;;;;;;;;;;;;;;17.78;51.25;99088.84;10330460;28;957;-71
2023/11/16 15:27:32;;;;;;;;;;;;;;;17.77;51.19;99089.78;10328983;28;996;-74
2023/11/16 15:32:31;;;;;;;;;;;;;;;17.74;51.26;99089.97;10328957;28;1914;-71
2023/11/16 15:37:27;;;;;;;;;;;;;;;17.71;51.31;99090.09;10330046;28;869;-71
2023/11/16 15:42:26;;;;;;;;;;;;;;;17.66;51.64;99097.44;10328577;28;849;-71
2023/11/16 15:47:22;;;;;;;;;;;;;;;17.64;51.46;99091.38;10330318;28;912;-71
2023/11/16 15:52:18;;;;;;;;;;;;;;;17.63;51.65;99081.75;10328721;28;1866;-70
2023/11/16 15:57:13;;;;;;;;;;;;;;;17.64;51.71;99089.59;10328586;28;912;-70
2023/11/16 16:02:10;;;;;;;;;;;;;;;17.64;51.64;99097.50;10328375;28;774;-71
2023/11/16 16:07:06;;;;;;;;;;;;;;;17.66;51.50;99095.66;10328696;28;934;-70
2023/11/16 16:12:02;;;;;;;;;;;;;;;17.67;51.42;99101.75;10328410;28;1951;-71
2023/11/16 16:17:00;;;;;;;;;;;;;;;17.67;51.49;99107.88;10327075;28;924;-72
2023/11/16 16:21:56;;;;;;;;;;;;;;;17.68;51.60;99101.69;10328727;28;846;-70
2023/11/16 16:26:52;;;;;;;;;;;;;;;17.68;51.36;99101.69;10326930;28;1114;-71
2023/11/16 16:31:47;;;;;;;;;;;;;;;17.72;51.50;99097.94;10327529;28;1890;-68
2023/11/16 16:36:43;;;;;;;;;;;;;;;17.71;51.46;99098.88;10325697;28;964;-71
2023/11/16 16:41:40;;;;;;;;;;;;;;;17.72;51.32;99095.31;10327071;28;756;-71
2023/11/16 16:46:42;;;;;;;;;;;;;;;17.78;51.26;99096.75;10327411;28;790;-71
2023/11/16 16:51:38;;;;;;;;;;;;;;;17.78;51.13;99102.03;10326597;28;1967;-71
2023/11/16 16:56:34;;;;;;;;;;;;;;;17.82;51.48;99111.53;10326404;28;881;-71
2023/11/16 17:01:30;;;;;;;;;;;;;;;17.87;51.20;99113.94;10326823;28;884;-69
2023/11/16 17:06:27;;;;;;;;;;;;;;;17.78;51.44;99109.94;10326199;28;913;-71
2023/11/16 17:11:23;;;;;;;;;;;;;;;17.82;51.48;99108.03;10325918;28;2043;-70
2023/11/16 17:16:19;;;;;;;;;;;;;;;17.87;51.06;99106.84;10325368;28;1029;-70
2023/11/16 17:21:15;;;;;;;;;;;;;;;17.85;51.09;99110.50;10325468;28;873;-71
2023/11/16 17:26:11;;;;;;;;;;;;;;;17.85;51.23;99111.34;10326246;28;775;-71
2023/11/16 17:31:07;;;;;;;;;;;;;;;17.91;50.93;99118.94;10325872;28;1913;-70
2023/11/16 17:36:04;;;;;;;;;;;;;;;17.88;51.15;99123.53;10325491;28;696;-71
2023/11/16 17:41:03;;;;;;;;;;;;;;;17.85;51.11;99121.91;10324548;28;1013;-71
2023/11/16 17:45:59;;;;;;;;;;;;;;;17.89;50.94;99122.56;10325170;28;922;-71
2023/11/16 17:50:55;;;;;;;;;;;;;;;17.90;50.98;99124.31;10333070;28;1976;-70
2023/11/16 17:55:51;;;;;;;;;;;;;;;17.89;51.00;99122.56;10333533;28;878;-71
2023/11/16 18:00:47;;;;;;;;;;;;;;;17.93;50.99;99126.75;10333319;28;964;-70
2023/11/16 18:05:43;;;;;;;;;;;;;;;17.92;50.99;99123.28;10333785;28;927;-70
2023/11/16 18:10:53;;;;;;;;;;;;;;;17.91;50.90;99126.84;10332821;28;1956;-70
2023/11/16 18:15:49;;;;;;;;;;;;;;;17.94;50.76;99133.72;10333402;28;885;-70
2023/11/16 18:20:46;;;;;;;;;;;;;;;17.94;50.84;99131.09;10333255;28;818;-70
2023/11/16 18:25:42;;;;;;;;;;;;;;;17.92;50.90;99125.91;10332358;28;818;-70
2023/11/16 18:30:38;;;;;;;;;;;;;;;17.94;50.80;99136.38;10331151;28;1977;-70
2023/11/16 18:35:39;;;;;;;;;;;;;;;17.94;50.80;99147.75;10331953;28;846;-71
2023/11/16 18:40:35;;;;;;;;;;;;;;;17.94;51.02;99152.19;10331730;28;798;-71
2023/11/16 18:45:31;;;;;;;;;;;;;;;17.97;50.93;99146.75;10332086;28;814;-71
2023/11/16 18:50:27;;;;;;;;;;;;;;;17.98;50.75;99140.56;10331343;28;1957;-71
2023/11/16 18:55:23;;;;;;;;;;;;;;;17.96;50.92;99139.78;10331837;28;893;-71
2023/11/16 19:00:19;;;;;;;;;;;;;;;17.98;50.79;99143.19;10330575;28;743;-70
2023/11/16 19:05:17;;;;;;;;;;;;;;;17.99;50.78;99139.59;10330846;28;1659;-70
2023/11/16 19:10:16;;;;;;;;;;;;;;;17.96;50.75;99138.00;10331169;28;1902;-70
2023/11/16 19:15:12;;;;;;;;;;;;;;;18.00;50.76;99145.72;10332219;28;896;-70
2023/11/16 19:20:13;;;;;;;;;;;;;;;18.00;50.84;99145.72;10330921;28;819;-70
2023/11/16 19:25:09;;;;;;;;;;;;;;;18.00;50.75;99146.59;10329556;28;933;-70
2023/11/16 19:30:05;;;;;;;;;;;;;;;18.00;50.58;99146.59;10329864;28;1914;-71
2023/11/16 19:35:01;;;;;;;;;;;;;;;18.02;50.75;99149.13;10329057;28;929;-70
2023/11/16 19:39:59;;;;;;;;;;;;;;;18.01;50.73;99153.56;10329640;28;767;-71
2023/11/16 19:44:56;;;;;;;;;;;;;;;18.00;50.84;99151.88;10329884;28;877;-70
2023/11/16 19:49:52;;;;;;;;;;;;;;;18.01;50.68;99161.47;10330009;28;1902;-71
2023/11/16 19:54:48;;;;;;;;;;;;;;;18.02;50.64;99164.97;10329097;28;815;-70
2023/11/16 19:59:44;;;;;;;;;;;;;;;18.04;50.85;99168.38;10328781;28;922;-70
2023/11/16 20:04:41;;;;;;;;;;;;;;;18.05;50.75;99167.44;10329185;28;897;-70
2023/11/16 20:09:38;;;;;;;;;;;;;;;18.03;50.85;99166.69;10327436;28;1950;-69
2023/11/16 20:14:34;;;;;;;;;;;;;;;17.96;50.81;99187.25;10328708;28;821;-69
2023/11/16 20:19:29;;;;;;;;;;;;;;;17.98;50.68;99180.09;10327873;28;998;-68
2023/11/16 20:24:26;;;;;;;;;;;;;;;17.98;50.88;99179.25;10328021;28;799;-71
2023/11/16 20:29:21;;;;;;;;;;;;;;;18.00;50.59;99188.78;10327979;28;1983;-71
2023/11/16 20:34:19;;;;;;;;;;;;;;;18.03;50.46;99193.91;10327490;28;888;-71
2023/11/16 20:39:16;;;;;;;;;;;;;;;18.02;50.50;99199.25;10328700;28;798;-71
2023/11/16 20:44:13;;;;;;;;;;;;;;;18.03;50.68;99206.25;10327088;28;850;-71
2023/11/16 20:49:09;;;;;;;;;;;;;;;17.99;50.57;99215.22;10326639;28;1914;-71
2023/11/16 20:54:05;;;;;;;;;;;;;;;17.94;50.78;99226.00;10326603;28;782;-71
2023/11/16 20:59:01;;;;;;;;;;;;;;;17.95;50.69;99241.78;10327061;28;794;-71
2023/11/16 21:03:58;;;;;;;;;;;;;;;17.93;50.75;99242.78;10326419;28;922;-70
2023/11/16 21:08:54;;;;;;;;;;;;;;;17.91;50.67;99249.91;10326263;28;857;-70
2023/11/16 21:13:50;;;;;;;;;;;;;;;17.93;50.75;99266.50;10325948;28;1953;-70
2023/11/16 21:18:46;;;;;;;;;;;;;;;17.90;50.91;99264.88;10325907;28;817;-71
2023/11/16 21:23:42;;;;;;;;;;;;;;;17.92;51.06;99262.16;10325778;28;778;-70
2023/11/16 21:28:39;;;;;;;;;;;;;;;17.87;50.99;99272.97;10325547;28;1041;-70
2023/11/16 21:33:35;;;;;;;;;;;;;;;17.87;50.94;99283.50;10326223;28;1910;-70
2023/11/16 21:38:31;;;;;;;;;;;;;;;17.85;50.89;99282.72;10326076;28;837;-70
2023/11/16 21:43:27;;;;;;;;;;;;;;;17.85;50.79;99282.72;10325357;28;795;-70
2023/11/16 21:48:23;;;;;;;;;;;;;;;17.83;50.97;99291.63;10325823;28;841;-70
2023/11/16 21:53:20;;;;;;;;;;;;;;;17.82;50.76;99295.22;10325051;28;1945;-70
2023/11/16 21:58:16;;;;;;;;;;;;;;;17.82;50.78;99309.25;10324988;28;977;-70
2023/11/16 22:03:12;;;;;;;;;;;;;;;17.81;51.04;99320.69;10324996;28;815;-70
2023/11/16 22:08:07;;;;;;;;;;;;;;;17.79;51.06;99321.66;10324922;28;869;-70
2023/11/16 22:13:03;;;;;;;;;;;;;;;17.77;50.79;99328.84;10325342;28;1944;-70
2023/11/16 22:17:59;;;;;;;;;;;;;;;17.73;50.89;99339.50;10325481;28;874;-70
2023/11/16 22:22:55;;;;;;;;;;;;;;;17.75;50.89;99345.56;10324574;28;811;-70
2023/11/16 22:27:51;;;;;;;;;;;;;;;17.73;50.97;99352.69;10324505;28;909;-70
2023/11/16 22:32:47;;;;;;;;;;;;;;;17.71;50.97;99362.47;10325236;28;1985;-70
2023/11/16 22:37:44;;;;;;;;;;;;;;;17.70;51.15;99368.66;10332481;28;1065;-70
2023/11/16 22:42:39;;;;;;;;;;;;;;;17.70;50.93;99389.75;10331720;28;896;-71
2023/11/16 22:47:35;;;;;;;;;;;;;;;17.72;51.02;99394.94;10330979;28;1059;-70
2023/11/16 22:52:31;;;;;;;;;;;;;;;17.67;50.99;99403.06;10330732;28;1948;-70
2023/11/16 22:57:27;;;;;;;;;;;;;;;17.67;51.10;99420.69;10331882;28;814;-70
2023/11/16 23:02:23;;;;;;;;;;;;;;;17.69;50.88;99416.19;10331638;28;873;-70
2023/11/16 23:07:21;;;;;;;;;;;;;;;17.70;50.79;99425.78;10331542;28;752;-70
2023/11/16 23:12:17;;;;;;;;;;;;;;;17.66;51.09;99430.38;10330002;28;1898;-69
2023/11/16 23:17:15;;;;;;;;;;;;;;;17.66;50.80;99435.63;10330490;28;773;-70
2023/11/16 23:22:12;;;;;;;;;;;;;;;17.68;50.75;99451.38;10330262;28;926;-70
2023/11/16 23:27:08;;;;;;;;;;;;;;;17.68;51.06;99457.50;10330405;28;843;-70
2023/11/16 23:32:05;;;;;;;;;;;;;;;17.65;50.77;99460.28;10329523;28;1967;-70
2023/11/16 23:37:01;;;;;;;;;;;;;;;17.65;50.79;99460.28;10329677;28;949;-69
2023/11/16 23:41:59;;;;;;;;;;;;;;;17.67;50.75;99461.06;10329587;28;842;-70
2023/11/16 23:46:55;;;;;;;;;;;;;;;17.65;50.82;99462.06;10329213;28;851;-70
2023/11/16 23:51:51;;;;;;;;;;;;;;;17.63;50.98;99469.19;10329141;28;1897;-70
2023/11/16 23:56:47;;;;;;;;;;;;;;;17.60;51.05;99478.06;10329582;28;791;-70
